Time;durP1;ratioP1;P1;durP2;ratioP2;P2;SDS_P1;SDS_P2;PMS_P1;PMS_P2;Temp;Humidity;BMP_temperature;BMP_pressure;BME280_temperature;BME280_humidity;BME280_pressure;Samples;Min_cycle;Max_cycle;Signal;HPM_P1;HPM_P2
2021/04/22 00:00:34;;;;;;;11.00;8.70;;;;;;;11.83;63.78;96402.69;5053384;28;20222;-63
2021/04/22 00:02:59;;;;;;;9.03;8.13;;;;;;;11.75;63.79;96408.28;5053571;28;20174;-62
2021/04/22 00:05:31;;;;;;;10.80;7.70;;;;;;;11.66;64.54;96407.84;5053573;28;20210;-62
2021/04/22 00:07:58;;;;;;;11.43;10.27;;;;;;;11.67;64.26;96404.19;5053260;28;20175;-57
2021/04/22 00:10:35;;;;;;;9.57;8.67;;;;;;;11.52;65.01;96405.66;5053223;28;20429;-62
2021/04/22 00:13:00;;;;;;;10.17;8.43;;;;;;;11.63;64.80;96410.91;5054408;28;20808;-62
2021/04/22 00:15:27;;;;;;;10.40;9.40;;;;;;;11.66;64.97;96407.84;5052871;28;20413;-62
2021/04/22 00:17:54;;;;;;;9.60;8.27;;;;;;;11.86;64.16;96413.56;5051698;28;20175;-62
2021/04/22 00:20:20;;;;;;;9.80;8.30;;;;;;;11.90;64.28;96414.66;5053250;28;20452;-58
2021/04/22 00:22:46;;;;;;;11.60;9.90;;;;;;;11.83;64.39;96418.47;5068252;28;20413;-62
2021/04/22 00:25:12;;;;;;;10.47;9.50;;;;;;;11.71;64.29;96426.38;5068592;28;20418;-62
2021/04/22 00:27:37;;;;;;;10.67;9.57;;;;;;;11.76;64.61;96421.22;5052981;28;20638;-62
2021/04/22 00:30:09;;;;;;;10.77;9.87;;;;;;;11.53;65.79;96420.41;5053134;28;20440;-62
2021/04/22 00:32:35;;;;;;;10.43;9.43;;;;;;;11.58;65.98;96423.19;5052998;28;20191;-58
2021/04/22 00:35:00;;;;;;;12.20;9.80;;;;;;;11.68;66.74;96418.97;5053015;28;20785;-58
2021/04/22 00:37:25;;;;;;;11.97;10.87;;;;;;;11.74;66.77;96414.59;5053960;28;20205;-62
2021/04/22 00:39:51;;;;;;;11.57;10.50;;;;;;;11.93;65.75;96418.69;5053134;28;20273;-57
2021/04/22 00:42:16;;;;;;;10.50;9.50;;;;;;;12.09;65.38;96410.03;5058327;28;20647;-57
2021/04/22 00:44:46;;;;;;;11.70;10.40;;;;;;;12.23;64.95;96403.47;5073247;28;20224;-57
2021/04/22 00:47:13;;;;;;;12.23;10.07;;;;;;;12.37;64.32;96408.22;5072406;28;20642;-58
2021/04/22 00:49:38;;;;;;;12.03;10.90;;;;;;;12.47;64.13;96406.81;5073187;28;20523;-58
2021/04/22 00:52:05;;;;;;;11.97;10.90;;;;;;;12.59;63.80;96411.00;5068568;28;20537;-62
2021/04/22 00:54:32;;;;;;;14.70;11.50;;;;;;;12.61;63.60;96408.16;5053140;28;20172;-62
2021/04/22 00:56:57;;;;;;;12.57;11.30;;;;;;;12.62;63.83;96407.09;5053038;28;20445;-63
2021/04/22 00:59:23;;;;;;;11.83;10.73;;;;;;;12.68;64.15;96408.78;5052735;28;20468;-57
2021/04/22 01:01:48;;;;;;;14.93;13.33;;;;;;;12.71;64.63;96395.13;5052991;28;20168;-62
2021/04/22 01:04:14;;;;;;;16.00;14.37;;;;;;;12.89;65.38;96384.34;5057034;28;20179;-62
2021/04/22 01:06:40;;;;;;;16.27;14.03;;;;;;;12.93;66.19;96377.56;5072876;28;20182;-57
2021/04/22 01:09:06;;;;;;;16.00;14.30;;;;;;;13.07;66.91;96373.59;5072379;28;20437;-58
2021/04/22 01:11:32;;;;;;;17.17;15.40;;;;;;;13.11;67.25;96374.72;5072116;28;20213;-58
2021/04/22 01:13:57;;;;;;;16.13;14.53;;;;;;;13.15;68.00;96371.34;5064855;28;20456;-58
2021/04/22 01:16:23;;;;;;;17.53;15.63;;;;;;;13.21;68.74;96372.22;5073367;28;20405;-58
2021/04/22 01:18:49;;;;;;;17.23;15.57;;;;;;;13.24;68.97;96375.19;5070536;28;20201;-57
2021/04/22 01:21:25;;;;;;;17.93;16.07;;;;;;;13.25;69.19;96384.72;5072443;28;20182;-62
2021/04/22 01:23:52;;;;;;;19.07;17.10;;;;;;;13.36;68.78;96383.81;5069099;28;20181;-58
2021/04/22 01:26:20;;;;;;;18.47;16.50;;;;;;;13.36;67.93;96383.00;5054660;28;20434;-63
2021/04/22 01:28:46;;;;;;;18.27;15.90;;;;;;;13.25;67.05;96394.47;5054863;28;20433;-57
2021/04/22 01:31:11;;;;;;;18.13;16.30;;;;;;;13.25;67.09;96402.38;5056147;28;20425;-58
2021/04/22 01:33:37;;;;;;;19.10;16.70;;;;;;;13.19;68.08;96398.84;5057215;28;20817;-62
2021/04/22 01:36:03;;;;;;;17.30;15.47;;;;;;;12.87;68.51;96394.34;5056173;28;20526;-57
2021/04/22 01:38:29;;;;;;;18.27;15.80;;;;;;;12.92;69.15;96397.88;5055599;28;20202;-57
2021/04/22 01:40:56;;;;;;;18.40;16.00;;;;;;;13.00;69.16;96405.41;5056174;28;20180;-57
2021/04/22 01:43:22;;;;;;;17.53;15.90;;;;;;;12.99;68.57;96397.72;5055989;28;20402;-60
2021/04/22 01:45:48;;;;;;;18.90;17.13;;;;;;;12.95;69.37;96402.69;5076017;28;20413;-62
2021/04/22 01:48:14;;;;;;;17.90;16.20;;;;;;;12.97;69.25;96402.44;5062622;28;20191;-57
2021/04/22 01:50:39;;;;;;;19.80;16.80;;;;;;;12.94;69.27;96406.34;5055774;28;20672;-57
2021/04/22 01:53:06;;;;;;;16.90;15.20;;;;;;;12.99;69.68;96405.63;5055749;28;20458;-62
2021/04/22 01:55:40;;;;;;;18.43;16.50;;;;;;;13.02;69.66;96407.78;5055974;28;20534;-62
2021/04/22 01:58:08;;;;;;;20.40;16.03;;;;;;;13.06;69.58;96409.72;5055145;28;20891;-58
2021/04/22 02:00:43;;;;;;;18.70;16.80;;;;;;;13.15;69.12;96412.78;5054293;28;20427;-58
2021/04/22 02:03:09;;;;;;;16.17;14.57;;;;;;;13.23;68.75;96413.19;5068430;28;20462;-63
2021/04/22 02:05:36;;;;;;;17.80;15.97;;;;;;;13.15;67.95;96425.97;5075642;28;20709;-62
2021/04/22 02:08:02;;;;;;;18.63;16.73;;;;;;;12.97;68.02;96415.63;5075141;28;20843;-62
2021/04/22 02:10:28;;;;;;;17.60;15.90;;;;;;;13.10;67.43;96425.88;5075157;28;20428;-63
2021/04/22 02:12:53;;;;;;;18.60;16.60;;;;;;;13.04;68.31;96427.66;5075757;28;20460;-62
2021/04/22 02:15:22;;;;;;;17.77;15.97;;;;;;;13.07;68.34;96432.44;5070760;28;20183;-63
2021/04/22 02:17:47;;;;;;;19.17;17.20;;;;;;;13.09;68.34;96426.94;5055219;28;20170;-63
2021/04/22 02:20:15;;;;;;;20.10;18.00;;;;;;;13.00;69.10;96431.78;5058721;28;20798;-63
2021/04/22 02:22:41;;;;;;;19.77;17.83;;;;;;;13.03;69.26;96426.03;5065097;28;20179;-58
2021/04/22 02:25:09;;;;;;;21.90;17.07;;;;;;;13.05;69.27;96425.78;5055399;28;20413;-63
2021/04/22 02:27:35;;;;;;;19.17;17.33;;;;;;;13.04;69.76;96432.94;5054931;28;20411;-62
2021/04/22 02:30:02;;;;;;;21.93;19.67;;;;;;;13.06;69.91;96430.06;5055139;28;20448;-62
2021/04/22 02:32:27;;;;;;;22.03;19.90;;;;;;;12.82;70.41;96431.19;5054896;28;20469;-63
2021/04/22 02:34:52;;;;;;;22.60;20.30;;;;;;;12.79;70.79;96434.31;5054988;28;20770;-58
2021/04/22 02:37:18;;;;;;;23.90;21.40;;;;;;;12.63;71.66;96435.06;5074526;28;20178;-62
2021/04/22 02:39:43;;;;;;;23.87;21.27;;;;;;;12.46;72.81;96435.03;5072977;28;20194;-57
2021/04/22 02:42:09;;;;;;;25.43;22.77;;;;;;;12.68;71.98;96440.44;5073938;28;20181;-63
2021/04/22 02:44:34;;;;;;;26.60;22.20;;;;;;;12.58;72.45;96448.94;5060598;28;20179;-62
2021/04/22 02:47:00;;;;;;;25.60;22.80;;;;;;;12.70;72.11;96435.72;5054396;28;20664;-59
2021/04/22 02:49:25;;;;;;;25.30;22.63;;;;;;;12.80;71.60;96451.72;5054593;28;20249;-62
2021/04/22 02:51:50;;;;;;;25.03;22.00;;;;;;;12.86;72.01;96448.94;5054964;28;20262;-62
2021/04/22 02:54:16;;;;;;;29.30;24.70;;;;;;;13.00;71.12;96446.78;5054780;28;20229;-62
2021/04/22 02:56:41;;;;;;;23.93;21.40;;;;;;;12.98;71.48;96451.50;5054537;28;20175;-62
2021/04/22 02:59:07;;;;;;;27.60;24.70;;;;;;;12.86;71.32;96450.78;5054147;28;20206;-58
2021/04/22 03:01:32;;;;;;;29.03;24.70;;;;;;;12.83;71.55;96456.50;5054481;28;20202;-58
2021/04/22 03:03:57;;;;;;;28.53;25.40;;;;;;;12.68;72.18;96443.84;5054540;28;20175;-57
2021/04/22 03:06:23;;;;;;;30.93;25.23;;;;;;;12.80;71.51;96454.34;5057389;28;20664;-62
2021/04/22 03:08:48;;;;;;;27.87;24.63;;;;;;;12.88;72.23;96451.34;5072557;28;20340;-59
2021/04/22 03:11:14;;;;;;;31.07;26.40;;;;;;;12.90;72.57;96452.69;5070993;28;20178;-62
2021/04/22 03:13:39;;;;;;;28.70;25.60;;;;;;;12.93;73.39;96451.41;5054399;28;20557;-62
2021/04/22 03:16:06;;;;;;;30.80;25.47;;;;;;;12.88;74.87;96454.75;5054538;28;20171;-57
2021/04/22 03:18:31;;;;;;;29.97;26.67;;;;;;;12.92;74.44;96450.63;5053925;28;20187;-62
2021/04/22 03:20:57;;;;;;;33.57;28.27;;;;;;;12.96;74.64;96450.94;5054343;28;20769;-58
2021/04/22 03:23:22;;;;;;;28.87;25.87;;;;;;;12.95;74.24;96444.88;5053018;28;20222;-58
2021/04/22 03:25:47;;;;;;;27.70;24.77;;;;;;;12.97;73.86;96453.31;5072403;28;20189;-62
2021/04/22 03:28:13;;;;;;;28.30;25.23;;;;;;;12.97;73.80;96460.47;5073502;28;20174;-58
2021/04/22 03:30:38;;;;;;;27.20;24.10;;;;;;;12.96;72.74;96457.03;5073937;28;20174;-62
2021/04/22 03:33:04;;;;;;;27.17;24.13;;;;;;;12.99;73.08;96461.03;5073151;28;20195;-58
2021/04/22 03:35:30;;;;;;;29.33;23.80;;;;;;;13.01;72.49;96480.03;5074026;28;20170;-57
2021/04/22 03:37:55;;;;;;;29.33;24.30;;;;;;;12.97;73.26;96478.94;5073494;28;20545;-62
2021/04/22 03:40:24;;;;;;;27.27;23.90;;;;;;;12.79;75.32;96474.63;5054706;28;20205;-58
2021/04/22 03:42:49;;;;;;;27.73;24.20;;;;;;;12.85;75.65;96478.97;5053916;28;20174;-62
2021/04/22 03:45:16;;;;;;;26.97;24.03;;;;;;;12.82;76.30;96486.56;5061668;28;20414;-58
2021/04/22 03:47:42;;;;;;;28.10;25.07;;;;;;;12.68;76.48;96490.53;5065494;28;20213;-62
2021/04/22 03:50:10;;;;;;;30.50;26.13;;;;;;;12.52;77.34;96486.00;5072711;28;20469;-58
2021/04/22 03:52:36;;;;;;;28.67;24.17;;;;;;;12.21;79.06;96492.50;5073530;28;20528;-58
2021/04/22 03:55:03;;;;;;;29.47;26.30;;;;;;;12.30;79.37;96493.75;5057192;28;20947;-61
2021/04/22 03:57:29;;;;;;;28.70;25.60;;;;;;;12.39;79.00;96495.75;5053145;28;20454;-61
2021/04/22 03:59:54;;;;;;;33.43;27.53;;;;;;;12.39;79.43;96502.88;5053585;28;20833;-62
2021/04/22 04:02:19;;;;;;;31.70;27.10;;;;;;;12.34;79.58;96497.47;5070059;28;20637;-62
2021/04/22 04:04:45;;;;;;;27.37;24.30;;;;;;;12.33;79.02;96501.97;5073609;28;20176;-62
2021/04/22 04:07:11;;;;;;;28.93;24.80;;;;;;;12.20;79.30;96499.59;5064537;28;20186;-62
2021/04/22 04:09:36;;;;;;;28.47;24.30;;;;;;;12.12;78.34;96507.84;5053530;28;20198;-58
2021/04/22 04:12:03;;;;;;;28.10;24.90;;;;;;;12.00;77.28;96509.69;5053712;28;20739;-58
2021/04/22 04:14:28;;;;;;;25.67;22.87;;;;;;;12.05;77.56;96512.44;5053513;28;20177;-62
2021/04/22 04:16:53;;;;;;;27.03;22.30;;;;;;;11.86;77.62;96516.22;5053459;28;20414;-62
2021/04/22 04:19:19;;;;;;;25.23;22.30;;;;;;;11.82;78.10;96519.53;5053134;28;20194;-62
2021/04/22 04:21:44;;;;;;;27.37;23.47;;;;;;;11.84;77.23;96528.00;5052083;28;20206;-62
2021/04/22 04:24:10;;;;;;;25.53;22.63;;;;;;;11.76;77.29;96517.84;5053461;28;20167;-62
2021/04/22 04:26:35;;;;;;;31.97;22.30;;;;;;;11.76;77.25;96515.22;5053315;28;20181;-58
2021/04/22 04:29:01;;;;;;;24.47;21.87;;;;;;;11.78;76.71;96521.81;5052778;28;20281;-62
2021/04/22 04:31:26;;;;;;;25.50;22.63;;;;;;;11.80;76.62;96517.13;5053538;28;20599;-62
2021/04/22 04:33:52;;;;;;;24.60;22.00;;;;;;;11.86;76.94;96523.31;5052874;28;20449;-62
2021/04/22 04:36:17;;;;;;;26.80;21.97;;;;;;;11.87;76.52;96525.72;5069516;28;20174;-58
2021/04/22 04:38:43;;;;;;;23.43;21.00;;;;;;;11.78;76.26;96527.09;5072690;28;20269;-58
2021/04/22 04:41:08;;;;;;;27.43;23.10;;;;;;;11.84;76.59;96525.38;5073269;28;20177;-58
2021/04/22 04:43:34;;;;;;;24.90;21.83;;;;;;;11.75;76.41;96534.66;5071455;28;20171;-62
2021/04/22 04:45:59;;;;;;;26.07;22.43;;;;;;;11.64;77.23;96538.03;5067539;28;20175;-58
2021/04/22 04:48:25;;;;;;;28.67;21.90;;;;;;;11.57;77.36;96543.41;5059057;28;20576;-57
2021/04/22 04:50:50;;;;;;;26.30;22.23;;;;;;;11.67;77.24;96545.53;5072990;28;20179;-62
2021/04/22 04:53:16;;;;;;;23.90;19.70;;;;;;;11.70;76.77;96555.59;5072716;28;20187;-62
2021/04/22 04:55:41;;;;;;;26.17;21.00;;;;;;;11.67;76.63;96567.38;5073005;28;20247;-62
2021/04/22 04:58:06;;;;;;;25.00;22.30;;;;;;;11.74;76.30;96568.06;5072594;28;20163;-62
2021/04/22 05:00:32;;;;;;;27.43;21.53;;;;;;;11.77;75.96;96567.63;5072009;28;20175;-58
2021/04/22 05:02:57;;;;;;;26.87;22.70;;;;;;;11.75;76.57;96574.94;5073923;28;20178;-57
2021/04/22 05:05:23;;;;;;;23.87;21.47;;;;;;;11.79;76.09;96578.72;5076856;28;20178;-58
2021/04/22 05:07:48;;;;;;;26.90;22.83;;;;;;;11.61;76.12;96575.34;5076337;28;20174;-58
2021/04/22 05:10:14;;;;;;;24.67;21.97;;;;;;;11.63;76.49;96576.69;5076490;28;20580;-62
2021/04/22 05:12:40;;;;;;;24.70;20.80;;;;;;;11.67;76.47;96577.13;5076833;28;20669;-62
2021/04/22 05:15:06;;;;;;;26.70;24.00;;;;;;;11.68;76.84;96584.78;5075611;28;20456;-62
2021/04/22 05:17:32;;;;;;;24.93;22.30;;;;;;;11.63;76.86;96574.06;5074278;28;20171;-59
2021/04/22 05:19:57;;;;;;;24.03;21.63;;;;;;;11.72;76.63;96583.28;5056273;28;20435;-57
2021/04/22 05:22:23;;;;;;;25.97;22.07;;;;;;;11.79;76.47;96585.81;5056538;28;20175;-61
2021/04/22 05:24:48;;;;;;;25.27;22.53;;;;;;;11.85;76.06;96585.69;5056374;28;20172;-58
2021/04/22 05:27:14;;;;;;;24.57;21.83;;;;;;;11.74;76.06;96596.22;5055868;28;20168;-58
2021/04/22 05:29:39;;;;;;;28.50;22.50;;;;;;;11.80;76.69;96604.00;5058930;28;20192;-62
2021/04/22 05:32:05;;;;;;;26.70;21.60;;;;;;;11.85;76.27;96596.22;5061338;28;20669;-57
2021/04/22 05:34:31;;;;;;;26.57;21.50;;;;;;;11.78;76.09;96607.88;5056243;28;20176;-62
2021/04/22 05:36:57;;;;;;;23.60;21.10;;;;;;;11.82;75.59;96609.84;5056046;28;20563;-62
2021/04/22 05:39:22;;;;;;;24.30;21.23;;;;;;;11.84;76.16;96614.91;5055717;28;20183;-62
2021/04/22 05:41:49;;;;;;;27.57;22.53;;;;;;;11.86;75.68;96615.47;5057005;28;20262;-62
2021/04/22 05:44:15;;;;;;;24.63;21.97;;;;;;;11.87;75.86;96611.78;5056556;28;20178;-58
2021/04/22 05:46:41;;;;;;;25.43;21.30;;;;;;;11.76;75.71;96607.34;5054781;28;20414;-62
2021/04/22 05:49:06;;;;;;;24.30;21.80;;;;;;;11.87;75.65;96617.06;5055406;28;20716;-58
2021/04/22 05:51:32;;;;;;;21.90;19.60;;;;;;;11.91;75.50;96616.41;5056066;28;20167;-62
2021/04/22 05:53:58;;;;;;;25.37;20.27;;;;;;;11.95;75.25;96622.81;5055962;28;20203;-62
2021/04/22 05:56:24;;;;;;;24.67;20.73;;;;;;;11.95;75.64;96624.63;5056955;28;20654;-58
2021/04/22 05:58:49;;;;;;;23.90;21.03;;;;;;;12.08;75.03;96625.22;5055230;28;20442;-58
2021/04/22 06:01:15;;;;;;;26.50;21.13;;;;;;;12.04;75.02;96632.00;5055814;28;20417;-62
2021/04/22 06:03:40;;;;;;;24.63;22.13;;;;;;;11.87;75.80;96636.31;5055745;28;20166;-58
2021/04/22 06:06:05;;;;;;;26.73;23.93;;;;;;;11.88;76.17;96642.38;5055774;28;20172;-62
2021/04/22 06:08:31;;;;;;;25.10;22.50;;;;;;;11.98;75.43;96639.97;5055097;28;20187;-58
2021/04/22 06:10:56;;;;;;;25.03;22.60;;;;;;;12.00;75.39;96644.00;5055483;28;20199;-58
2021/04/22 06:13:22;;;;;;;26.03;23.33;;;;;;;12.08;75.66;96648.91;5055473;28;20202;-61
2021/04/22 06:15:47;;;;;;;27.23;22.17;;;;;;;11.96;75.95;96650.75;5065342;28;20542;-61
2021/04/22 06:18:12;;;;;;;28.10;24.07;;;;;;;12.00;75.39;96649.25;5060081;28;20183;-58
2021/04/22 06:20:38;;;;;;;28.90;24.30;;;;;;;12.14;75.25;96640.09;5055325;28;20172;-62
2021/04/22 06:23:04;;;;;;;26.40;23.60;;;;;;;12.21;74.72;96655.81;5055416;28;20162;-58
2021/04/22 06:25:30;;;;;;;27.63;24.60;;;;;;;12.11;75.72;96661.66;5062086;28;20166;-57
2021/04/22 06:27:59;;;;;;;27.33;24.20;;;;;;;11.98;75.52;96663.69;5073523;28;20189;-62
2021/04/22 06:30:26;;;;;;;28.83;24.27;;;;;;;12.04;76.48;96670.69;5074293;28;20440;-57
2021/04/22 06:32:52;;;;;;;28.00;23.40;;;;;;;12.11;76.28;96663.47;5074939;28;20444;-58
2021/04/22 06:35:18;;;;;;;28.90;21.67;;;;;;;12.09;75.03;96681.34;5075132;28;20397;-58
2021/04/22 06:37:44;;;;;;;25.50;22.60;;;;;;;12.08;74.88;96679.75;5074406;28;20170;-59
2021/04/22 06:40:14;;;;;;;25.87;22.47;;;;;;;12.16;74.99;96682.84;5068795;28;20214;-58
2021/04/22 06:42:41;;;;;;;26.30;22.23;;;;;;;12.24;75.14;96682.50;5055164;28;20410;-60
2021/04/22 06:45:08;;;;;;;24.53;22.00;;;;;;;12.11;74.62;96688.00;5057108;28;20420;-62
2021/04/22 06:47:34;;;;;;;25.63;22.07;;;;;;;12.24;74.17;96686.97;5060731;28;20915;-62
2021/04/22 06:50:00;;;;;;;26.00;22.33;;;;;;;12.28;73.78;96702.09;5074349;28;20437;-62
2021/04/22 06:52:25;;;;;;;25.47;22.80;;;;;;;12.35;73.29;96705.44;5074570;28;20248;-62
2021/04/22 06:54:51;;;;;;;27.30;21.83;;;;;;;12.35;73.80;96702.81;5072099;28;20224;-62
2021/04/22 06:57:16;;;;;;;27.93;22.47;;;;;;;12.43;72.52;96706.13;5053015;28;20210;-58
2021/04/22 06:59:42;;;;;;;25.70;23.00;;;;;;;12.31;72.15;96706.91;5054458;28;20207;-62
2021/04/22 07:02:09;;;;;;;22.50;20.10;;;;;;;12.25;72.32;96707.00;5058979;28;20167;-61
2021/04/22 07:04:36;;;;;;;26.73;22.40;;;;;;;12.39;72.55;96709.19;5075273;28;20405;-62
2021/04/22 07:07:01;;;;;;;29.70;23.70;;;;;;;12.56;72.11;96714.59;5073983;28;20419;-59
2021/04/22 07:09:27;;;;;;;25.80;22.17;;;;;;;12.63;71.88;96712.66;5074282;28;20421;-58
2021/04/22 07:11:53;;;;;;;25.67;22.90;;;;;;;12.67;72.12;96718.25;5073250;28;20179;-58
2021/04/22 07:14:18;;;;;;;24.80;22.20;;;;;;;12.76;72.06;96716.88;5067530;28;20179;-57
2021/04/22 07:16:43;;;;;;;26.10;23.30;;;;;;;12.80;71.84;96716.22;5069398;28;20183;-60
2021/04/22 07:19:09;;;;;;;24.93;21.63;;;;;;;12.57;72.51;96726.75;5053713;28;20187;-62
2021/04/22 07:21:34;;;;;;;23.80;20.70;;;;;;;12.85;71.45;96728.69;5052827;28;20526;-62
2021/04/22 07:24:00;;;;;;;26.37;22.93;;;;;;;12.82;72.05;96735.25;5061107;28;20170;-58
2021/04/22 07:26:26;;;;;;;22.67;20.33;;;;;;;12.86;70.46;96736.41;5074364;28;20532;-62
2021/04/22 07:28:51;;;;;;;21.47;19.17;;;;;;;13.01;70.47;96734.06;5073243;28;20199;-58
2021/04/22 07:31:17;;;;;;;21.27;18.40;;;;;;;13.15;69.52;96735.44;5072225;28;20478;-62
2021/04/22 07:33:43;;;;;;;18.80;17.00;;;;;;;13.03;69.38;96733.88;5073972;28;20183;-62
2021/04/22 07:36:08;;;;;;;24.80;19.30;;;;;;;13.06;69.36;96733.41;5073824;28;20486;-63
2021/04/22 07:38:34;;;;;;;21.00;18.47;;;;;;;12.98;67.67;96728.47;5073348;28;20236;-58
2021/04/22 07:40:59;;;;;;;19.53;17.43;;;;;;;13.06;68.12;96736.06;5073805;28;20174;-62
2021/04/22 07:43:25;;;;;;;19.23;16.83;;;;;;;13.14;68.11;96740.97;5059824;28;20178;-57
2021/04/22 07:45:50;;;;;;;20.77;17.43;;;;;;;13.08;68.62;96741.91;5071138;28;20224;-57
2021/04/22 07:48:15;;;;;;;18.70;16.70;;;;;;;13.15;66.56;96743.38;5068379;28;20571;-62
2021/04/22 07:50:41;;;;;;;21.93;17.97;;;;;;;13.05;67.26;96740.53;5056693;28;20187;-62
2021/04/22 07:53:07;;;;;;;21.10;16.00;;;;;;;13.29;66.32;96742.09;5053429;28;20198;-57
2021/04/22 07:55:39;;;;;;;20.40;17.93;;;;;;;13.28;65.51;96753.69;5058886;28;20444;-61
2021/04/22 07:58:05;;;;;;;21.30;16.83;;;;;;;13.10;67.03;96748.53;5059077;28;20907;-61
2021/04/22 08:00:32;;;;;;;18.97;15.27;;;;;;;13.34;67.07;96749.31;5068701;28;20543;-62
2021/04/22 08:02:58;;;;;;;18.33;16.40;;;;;;;13.54;66.10;96752.34;5073829;28;20401;-58
2021/04/22 08:05:26;;;;;;;16.20;14.60;;;;;;;13.67;66.15;96756.56;5071962;28;20908;-58
2021/04/22 08:07:52;;;;;;;18.73;15.27;;;;;;;13.61;64.88;96753.03;5072927;28;20416;-59
2021/04/22 08:10:22;;;;;;;18.00;15.87;;;;;;;13.69;64.59;96757.94;5073248;28;20429;-56
2021/04/22 08:12:48;;;;;;;17.50;15.37;;;;;;;13.72;63.93;96756.66;5072001;28;20226;-55
2021/04/22 08:15:14;;;;;;;15.10;12.93;;;;;;;13.82;63.15;96759.50;5056378;28;20425;-56
2021/04/22 08:17:40;;;;;;;22.00;15.70;;;;;;;13.77;62.16;96759.41;5053980;28;20516;-58
2021/04/22 08:20:09;;;;;;;15.27;13.63;;;;;;;13.89;61.33;96760.16;5052992;28;20951;-55
2021/04/22 08:22:36;;;;;;;17.83;15.17;;;;;;;14.00;61.00;96765.41;5051995;28;20426;-56
2021/04/22 08:25:04;;;;;;;17.83;15.93;;;;;;;14.00;62.28;96768.03;5053245;28;20745;-58
2021/04/22 08:27:30;;;;;;;15.63;13.90;;;;;;;14.08;61.19;96767.66;5058800;28;20435;-55
2021/04/22 08:29:56;;;;;;;17.10;13.80;;;;;;;14.18;62.17;96767.84;5058972;28;20433;-55
2021/04/22 08:32:21;;;;;;;18.10;16.17;;;;;;;13.97;63.20;96768.50;5059837;28;20452;-55
2021/04/22 08:34:47;;;;;;;17.97;14.90;;;;;;;13.91;63.11;96777.38;5058628;28;20479;-58
2021/04/22 08:37:12;;;;;;;15.73;14.00;;;;;;;14.15;59.80;96776.22;5054884;28;20708;-56
2021/04/22 08:39:38;;;;;;;17.50;13.13;;;;;;;14.35;59.60;96781.91;5055560;28;20201;-58
2021/04/22 08:42:04;;;;;;;15.83;13.30;;;;;;;14.23;60.19;96775.84;5053662;28;20186;-59
2021/04/22 08:44:29;;;;;;;16.63;12.10;;;;;;;14.23;59.25;96778.50;5062649;28;20182;-59
2021/04/22 08:46:55;;;;;;;13.90;12.37;;;;;;;14.41;58.82;96780.97;5073282;28;20171;-59
2021/04/22 08:49:20;;;;;;;14.17;11.97;;;;;;;14.59;57.88;96785.22;5069322;28;20269;-58
2021/04/22 08:51:47;;;;;;;18.20;12.97;;;;;;;14.61;56.76;96782.31;5053129;28;20417;-58
2021/04/22 08:54:14;;;;;;;14.90;11.30;;;;;;;14.61;55.85;96782.31;5053363;28;20199;-58
2021/04/22 08:56:41;;;;;;;14.00;12.07;;;;;;;14.60;54.91;96788.66;5053259;28;20452;-57
2021/04/22 08:59:06;;;;;;;14.80;11.37;;;;;;;14.60;54.91;96786.81;5052835;28;20433;-58
2021/04/22 09:01:32;;;;;;;16.17;11.57;;;;;;;14.58;55.43;96793.38;5051957;28;20421;-58
2021/04/22 09:04:00;;;;;;;18.97;12.10;;;;;;;14.56;55.08;96790.19;5054266;28;20164;-58
2021/04/22 09:06:28;;;;;;;12.57;11.27;;;;;;;14.66;55.23;96803.56;5053555;28;20478;-59
2021/04/22 09:08:53;;;;;;;14.77;10.83;;;;;;;14.70;54.96;96792.25;5052758;28;20429;-58
2021/04/22 09:11:24;;;;;;;14.90;10.30;;;;;;;14.26;54.98;96801.00;5066627;28;20993;-60
2021/04/22 09:13:50;;;;;;;13.20;10.13;;;;;;;14.49;55.59;96803.56;5066137;28;20692;-60
2021/04/22 09:16:18;;;;;;;13.23;10.33;;;;;;;14.63;55.42;96802.22;5058349;28;20466;-60
2021/04/22 09:18:46;;;;;;;17.10;10.63;;;;;;;14.63;54.95;96796.91;5057342;28;20813;-61
2021/04/22 09:21:29;;;;;;;11.80;10.23;;;;;;;14.79;53.82;96803.25;5053120;28;20424;-60
2021/04/22 09:24:13;;;;;;;11.57;9.47;;;;;;;14.97;52.71;96806.44;5052883;28;20409;-62
2021/04/22 09:26:41;;;;;;;15.03;9.93;;;;;;;14.62;52.06;96807.75;5063524;28;20443;-64
2021/04/22 09:29:09;;;;;;;13.60;10.70;;;;;;;14.11;54.28;96806.03;5056043;28;20563;-64
2021/04/22 09:31:35;;;;;;;14.27;11.00;;;;;;;14.35;54.40;96815.47;5052734;28;20418;-64
2021/04/22 09:34:06;;;;;;;14.30;11.73;;;;;;;14.55;53.73;96810.53;5052640;28;20449;-64
2021/04/22 09:36:44;;;;;;;16.03;12.00;;;;;;;14.76;54.15;96814.31;5052761;28;20928;-64
2021/04/22 09:39:10;;;;;;;14.37;10.73;;;;;;;14.90;51.38;96807.66;5064984;28;20436;-63
2021/04/22 09:41:36;;;;;;;14.50;10.57;;;;;;;14.87;50.76;96802.84;5071965;28;20438;-64
2021/04/22 09:44:10;;;;;;;12.83;9.63;;;;;;;14.48;52.37;96811.72;5071480;28;20417;-64
2021/04/22 09:46:42;;;;;;;12.70;9.90;;;;;;;14.81;53.66;96811.75;5071943;28;20584;-61
2021/04/22 09:49:17;;;;;;;16.67;10.20;;;;;;;15.03;52.60;96808.13;5070652;28;20446;-61
2021/04/22 09:51:45;;;;;;;11.93;9.90;;;;;;;14.96;52.67;96802.22;5071833;28;20400;-63
2021/04/22 09:54:14;;;;;;;11.83;9.97;;;;;;;14.98;54.96;96809.91;5072065;28;20453;-61
2021/04/22 09:56:54;;;;;;;13.70;9.90;;;;;;;15.32;50.99;96812.25;5071408;28;20466;-61
2021/04/22 09:59:22;;;;;;;11.63;9.20;;;;;;;15.56;49.25;96812.88;5065477;28;20463;-61
2021/04/22 10:01:59;;;;;;;10.90;9.10;;;;;;;15.51;50.93;96815.44;5054056;28;20421;-62
2021/04/22 10:04:33;;;;;;;14.27;9.50;;;;;;;15.60;51.66;96810.53;5050173;28;20414;-61
2021/04/22 10:06:59;;;;;;;11.80;9.00;;;;;;;15.50;50.84;96803.25;5062034;28;20417;-64
2021/04/22 10:09:36;;;;;;;10.83;9.37;;;;;;;15.86;47.50;96807.13;5071840;28;20440;-65
2021/04/22 10:12:03;;;;;;;11.60;8.40;;;;;;;15.93;44.84;96813.03;5071651;28;20405;-60
2021/04/22 10:14:35;;;;;;;8.37;7.53;;;;;;;16.14;45.97;96802.41;5068883;28;20456;-62
2021/04/22 10:17:13;;;;;;;10.87;7.90;;;;;;;16.44;46.21;96804.56;5050777;28;20895;-63
2021/04/22 10:19:38;;;;;;;9.20;7.40;;;;;;;16.58;44.57;96805.78;5051601;28;20414;-61
2021/04/22 10:22:04;;;;;;;9.10;7.90;;;;;;;16.14;44.99;96804.28;5051627;28;20425;-62
2021/04/22 10:24:29;;;;;;;7.83;6.93;;;;;;;16.26;44.86;96802.28;5051436;28;20175;-64
2021/04/22 10:27:02;;;;;;;9.23;7.10;;;;;;;16.32;44.62;96811.91;5051397;28;20198;-63
2021/04/22 10:29:29;;;;;;;9.90;7.00;;;;;;;16.35;44.45;96806.88;5050868;28;20187;-64
2021/04/22 10:31:57;;;;;;;8.97;7.13;;;;;;;16.21;42.98;96799.59;5051235;28;20448;-65
2021/04/22 10:34:29;;;;;;;10.90;7.57;;;;;;;16.05;43.42;96797.81;5054529;28;21052;-61
2021/04/22 10:36:55;;;;;;;11.90;7.57;;;;;;;16.00;45.00;96803.84;5071229;28;20421;-64
2021/04/22 10:39:21;;;;;;;8.73;6.80;;;;;;;16.11;43.90;96802.91;5071083;28;20472;-64
2021/04/22 10:41:50;;;;;;;11.80;6.93;;;;;;;16.27;42.90;96796.72;5069938;28;20441;-65
2021/04/22 10:44:16;;;;;;;9.20;6.07;;;;;;;16.55;40.70;96790.38;5071219;28;20417;-61
2021/04/22 10:46:42;;;;;;;6.43;5.80;;;;;;;16.76;41.59;96794.03;5071144;28;20446;-64
2021/04/22 10:49:07;;;;;;;9.23;6.73;;;;;;;16.59;40.22;96796.78;5068978;28;20203;-62
2021/04/22 10:51:35;;;;;;;8.33;6.70;;;;;;;16.86;40.35;96791.44;5070530;28;20413;-63
2021/04/22 10:54:02;;;;;;;7.17;5.53;;;;;;;16.97;39.55;96799.22;5070993;28;20209;-67
2021/04/22 10:56:29;;;;;;;7.57;5.77;;;;;;;16.99;39.75;96793.66;5070258;28;20868;-59
2021/04/22 10:58:54;;;;;;;9.80;6.73;;;;;;;17.17;39.50;96788.75;5070304;28;20829;-59
2021/04/22 11:01:30;;;;;;;7.33;6.67;;;;;;;17.23;38.61;96785.03;5057566;28;20434;-59
2021/04/22 11:04:03;;;;;;;11.10;7.00;;;;;;;17.53;39.70;96787.09;5069099;28;20219;-58
2021/04/22 11:06:34;;;;;;;9.47;6.97;;;;;;;17.68;38.43;96781.06;5061652;28;20422;-58
2021/04/22 11:09:14;;;;;;;8.67;6.73;;;;;;;17.67;38.71;96788.22;5078480;28;20436;-58
2021/04/22 11:11:51;;;;;;;13.50;7.47;;;;;;;17.69;38.37;96783.44;5070088;28;20457;-58
2021/04/22 11:14:17;;;;;;;7.83;7.03;;;;;;;17.72;37.89;96790.13;5078967;28;21115;-57
2021/04/22 11:16:51;;;;;;;7.37;6.67;;;;;;;17.91;38.22;96778.75;5051660;28;20643;-59